createdAt,value
2019-01-03T00:01:49.994Z,100348.20
2019-01-03T00:06:39.336Z,100356.48
2019-01-03T00:09:10.021Z,100359.94
2019-01-03T00:14:13.106Z,100368.22
2019-01-03T00:16:43.931Z,100369.68
2019-01-03T00:21:47.007Z,100366.63
2019-01-03T00:24:17.689Z,100368.26
2019-01-03T00:26:53.722Z,100371.19
2019-01-03T00:29:20.982Z,100367.77
2019-01-03T00:32:13.540Z,100369.53
2019-01-03T00:34:44.215Z,100370.03
2019-01-03T00:37:14.902Z,100368.02
2019-01-03T00:39:45.576Z,100368.89
2019-01-03T00:42:16.268Z,100369.73
2019-01-03T00:45:08.725Z,100368.05
2019-01-03T00:47:39.433Z,100363.84
2019-01-03T00:50:10.109Z,100367.30
2019-01-03T00:52:40.825Z,100368.10
2019-01-03T00:55:11.491Z,100370.64
2019-01-03T00:57:42.208Z,100364.73
2019-01-03T01:00:12.905Z,100366.83
2019-01-03T01:02:43.609Z,100367.61
2019-01-03T01:05:14.305Z,100367.95
2019-01-03T01:07:44.989Z,100374.66
2019-01-03T01:10:15.659Z,100372.93
2019-01-03T01:12:46.353Z,100378.34
2019-01-03T01:15:17.071Z,100385.13
2019-01-03T01:17:47.805Z,100386.44
2019-01-03T01:22:50.878Z,100394.08
2019-01-03T01:25:21.590Z,100404.58
2019-01-03T01:27:52.299Z,100407.43
2019-01-03T01:30:23.066Z,100409.97
2019-01-03T01:35:12.297Z,100414.59
2019-01-03T01:37:42.969Z,100410.27
2019-01-03T01:42:35.950Z,100415.71
2019-01-03T01:47:29.009Z,100419.13
2019-01-03T01:49:59.705Z,100418.64
2019-01-03T01:52:30.390Z,100423.30
2019-01-03T01:57:33.463Z,100430.03
2019-01-03T02:00:04.151Z,100426.55
2019-01-03T02:05:07.208Z,100430.75
2019-01-03T02:07:37.998Z,100431.22
2019-01-03T02:10:08.676Z,100434.54
2019-01-03T02:14:57.864Z,100439.80
2019-01-03T02:17:28.553Z,100441.82
2019-01-03T02:22:31.686Z,100440.58
2019-01-03T02:25:02.363Z,100442.62
2019-01-03T02:27:33.087Z,100442.46
2019-01-03T02:30:03.763Z,100439.58
2019-01-03T02:32:34.446Z,100439.67
2019-01-03T02:35:05.133Z,100450.78
2019-01-03T02:37:35.847Z,100446.59
2019-01-03T02:40:06.531Z,100450.63
2019-01-03T02:44:59.366Z,100460.56
2019-01-03T02:52:11.073Z,100456.66
2019-01-03T02:54:41.750Z,100457.99
2019-01-03T03:02:06.915Z,100451.94
2019-01-03T03:04:37.620Z,100457.09
2019-01-03T03:11:59.408Z,100445.98
2019-01-03T03:14:43.145Z,100436.64
2019-01-03T03:19:46.253Z,100433.39
2019-01-03T03:25:09.464Z,100432.23
2019-01-03T03:30:32.391Z,100434.42
2019-01-03T03:33:03.101Z,100434.42
2019-01-03T03:35:33.796Z,100432.58
2019-01-03T03:40:36.850Z,100425.72
2019-01-03T03:43:07.525Z,100429.02
2019-01-03T03:47:56.833Z,100426.23
2019-01-03T03:50:47.418Z,100413.84
2019-01-03T03:53:18.125Z,100413.84
2019-01-03T04:00:26.563Z,100408.66
2019-01-03T04:03:17.135Z,100394.78
2019-01-03T04:08:26.183Z,100408.29
2019-01-03T04:10:56.878Z,100408.29
2019-01-03T04:15:59.962Z,100394.05
2019-01-03T04:18:30.639Z,100401.36
2019-01-03T04:21:01.353Z,100397.87
2019-01-03T04:23:51.911Z,100392.87
2019-01-03T04:33:25.895Z,100399.01
2019-01-03T04:35:56.584Z,100394.05
2019-01-03T04:40:59.661Z,100392.81
2019-01-03T04:43:30.321Z,100390.75
2019-01-03T04:46:00.989Z,100385.98
2019-01-03T04:48:31.693Z,100386.23
2019-01-03T04:51:02.370Z,100381.53
2019-01-03T04:53:33.054Z,100376.80
2019-01-03T04:56:03.717Z,100388.55
2019-01-03T04:58:34.418Z,100384.87
2019-01-03T05:01:05.115Z,100389.00
2019-01-03T05:03:35.804Z,100394.45
2019-01-03T05:06:06.484Z,100395.31
2019-01-03T05:08:37.166Z,100401.22
2019-01-03T05:11:27.736Z,100388.11
2019-01-03T05:13:58.457Z,100388.11
2019-01-03T05:16:49.017Z,100385.09
2019-01-03T05:19:19.731Z,100385.09
2019-01-03T05:21:50.392Z,100394.56
2019-01-03T05:24:21.086Z,100400.28
2019-01-03T05:26:51.762Z,100393.83
2019-01-03T05:29:22.478Z,100395.00
2019-01-03T05:34:25.540Z,100393.41
2019-01-03T05:39:48.615Z,100392.55
2019-01-03T05:42:39.168Z,100391.75
2019-01-03T05:47:48.210Z,100404.63
2019-01-03T05:50:18.909Z,100404.63
2019-01-03T05:52:49.610Z,100392.06
2019-01-03T05:55:20.295Z,100411.00
2019-01-03T06:01:03.117Z,100407.89
2019-01-03T06:08:24.770Z,100419.70
2019-01-03T06:10:55.489Z,100420.34
2019-01-03T06:15:58.567Z,100424.45
2019-01-03T06:21:21.510Z,100419.02
2019-01-03T06:26:24.584Z,100416.48
2019-01-03T06:28:55.298Z,100429.12
2019-01-03T06:34:04.668Z,100436.80
2019-01-03T06:41:26.235Z,100436.86
2019-01-03T06:44:16.807Z,100437.81
2019-01-03T06:49:39.724Z,100441.28
2019-01-03T06:52:10.400Z,100441.28
2019-01-03T06:54:41.098Z,100440.26
2019-01-03T06:57:11.779Z,100447.97
2019-01-03T06:59:42.488Z,100455.25
2019-01-03T07:02:13.158Z,100450.64
2019-01-03T07:04:43.875Z,100454.42
2019-01-03T07:07:34.466Z,100460.55
2019-01-03T07:10:05.140Z,100460.55
2019-01-03T07:15:28.117Z,100446.50
2019-01-03T07:20:31.302Z,100449.20
2019-01-03T07:25:34.365Z,100460.23
2019-01-03T07:28:05.042Z,100450.73
2019-01-03T07:30:35.842Z,100464.81
2019-01-03T07:33:06.504Z,100449.30
2019-01-03T07:40:14.480Z,100463.47
2019-01-03T07:42:45.155Z,100462.89
2019-01-03T07:49:53.677Z,100452.52
2019-01-03T07:52:24.364Z,100467.78
2019-01-03T07:54:55.059Z,100475.92
2019-01-03T07:57:25.798Z,100474.14
2019-01-03T08:02:48.718Z,100477.89
2019-01-03T08:05:19.436Z,100482.44
2019-01-03T08:08:09.989Z,100500.92
2019-01-03T08:15:21.934Z,100484.61
2019-01-03T08:17:52.628Z,100482.69
2019-01-03T08:20:45.119Z,100483.28
2019-01-03T08:23:15.799Z,100481.02
2019-01-03T08:28:18.839Z,100491.14
2019-01-03T08:30:49.634Z,100497.17
2019-01-03T08:33:20.333Z,100499.20
2019-01-03T08:35:51.003Z,100494.78
2019-01-03T08:38:21.705Z,100497.03
2019-01-03T08:40:52.379Z,100498.55
2019-01-03T08:43:27.036Z,100496.85
2019-01-03T08:45:55.696Z,100495.99
2019-01-03T08:50:44.872Z,100494.62
2019-01-03T08:53:15.657Z,100497.59
2019-01-03T08:55:46.340Z,100499.66
2019-01-03T08:58:17.023Z,100498.39
2019-01-03T09:00:47.694Z,100495.84
2019-01-03T09:03:18.410Z,100489.52
2019-01-03T09:05:49.107Z,100493.00
2019-01-03T09:08:19.780Z,100496.02
2019-01-03T09:13:12.718Z,100484.78
2019-01-03T09:15:43.450Z,100483.29
2019-01-03T09:20:46.518Z,100480.14
2019-01-03T09:23:17.200Z,100480.00
2019-01-03T09:25:56.584Z,100482.38
2019-01-03T09:33:21.805Z,100481.09
2019-01-03T09:38:14.983Z,100479.54
2019-01-03T09:40:45.677Z,100475.84
2019-01-03T09:43:16.345Z,100469.97
2019-01-03T09:45:27.278Z,100473.44
2019-01-03T09:47:38.071Z,100474.13
2019-01-03T09:49:48.953Z,100472.20
2019-01-03T09:51:59.751Z,100474.82
2019-01-03T09:54:10.539Z,100479.07
2019-01-03T09:56:21.369Z,100483.77
2019-01-03T09:58:32.170Z,100485.47
2019-01-03T10:00:43.002Z,100479.07
2019-01-03T10:02:53.802Z,100474.45
2019-01-03T10:05:04.921Z,100481.39
2019-01-03T10:07:15.742Z,100476.70
2019-01-03T10:09:26.525Z,100476.30
2019-01-03T10:11:37.343Z,100470.81
2019-01-03T10:13:48.184Z,100465.77
2019-01-03T10:15:59.004Z,100459.87
2019-01-03T10:18:09.817Z,100449.31
2019-01-03T10:20:20.623Z,100445.07
2019-01-03T10:22:31.460Z,100446.87
2019-01-03T10:24:42.264Z,100453.44
2019-01-03T10:26:53.090Z,100451.73
2019-01-03T10:29:03.867Z,100455.52
2019-01-03T10:31:14.706Z,100446.62
2019-01-03T10:33:25.494Z,100444.59
2019-01-03T10:35:36.310Z,100445.08
2019-01-03T10:37:47.146Z,100433.63
2019-01-03T10:39:57.942Z,100431.91
2019-01-03T10:42:08.775Z,100430.31
2019-01-03T10:44:19.578Z,100425.30
2019-01-03T10:46:30.384Z,100433.41
2019-01-03T10:48:41.206Z,100430.80
2019-01-03T10:50:52.018Z,100429.56
2019-01-03T10:53:02.855Z,100430.89
2019-01-03T10:55:13.658Z,100424.49
2019-01-03T10:57:24.470Z,100430.48
2019-01-03T10:59:35.382Z,100430.94
2019-01-03T11:01:46.200Z,100432.75
2019-01-03T11:03:57.140Z,100432.38
2019-01-03T11:06:07.960Z,100431.56
2019-01-03T11:08:18.928Z,100430.33
2019-01-03T11:10:29.752Z,100421.33
2019-01-03T11:12:40.556Z,100420.52
2019-01-03T11:14:51.389Z,100418.44
2019-01-03T11:17:02.200Z,100413.80
2019-01-03T11:19:13.020Z,100401.42
2019-01-03T11:21:23.825Z,100401.42
2019-01-03T11:23:34.626Z,100391.22
2019-01-03T11:25:45.446Z,100391.31
2019-01-03T11:27:56.251Z,100384.56
2019-01-03T11:30:48.720Z,100394.42
2019-01-03T11:32:59.527Z,100386.81
2019-01-03T11:35:10.345Z,100381.70
2019-01-03T11:37:21.164Z,100377.43
2019-01-03T11:39:31.993Z,100372.77
2019-01-03T11:41:42.805Z,100371.06
2019-01-03T11:43:53.588Z,100368.54
2019-01-03T11:46:04.509Z,100369.35
2019-01-03T11:48:15.309Z,100361.70
2019-01-03T11:50:26.141Z,100361.36
2019-01-03T11:52:36.939Z,100355.34
2019-01-03T11:54:47.731Z,100345.55
2019-01-03T11:56:58.558Z,100352.42
2019-01-03T11:59:09.367Z,100351.17
2019-01-03T12:01:20.187Z,100348.22
2019-01-03T12:03:30.976Z,100342.25
2019-01-03T12:05:41.889Z,100336.69
2019-01-03T12:07:52.701Z,100332.42
2019-01-03T12:10:45.174Z,100328.91
2019-01-03T12:12:55.976Z,100323.39
2019-01-03T12:15:48.463Z,100314.81
2019-01-03T12:17:59.274Z,100304.99
2019-01-03T12:20:10.092Z,100299.88
2019-01-03T12:22:20.934Z,100318.27
2019-01-03T12:24:31.738Z,100322.14
2019-01-03T12:26:42.533Z,100326.87
2019-01-03T12:28:53.360Z,100323.91
2019-01-03T12:31:04.307Z,100325.20
2019-01-03T12:33:15.112Z,100326.02
2019-01-03T12:35:25.919Z,100323.03
2019-01-03T12:37:36.746Z,100321.71
2019-01-03T12:39:47.541Z,100327.66
2019-01-03T12:41:58.355Z,100331.53
2019-01-03T12:44:09.151Z,100323.03
2019-01-03T12:46:19.980Z,100320.10
2019-01-03T12:48:30.803Z,100322.23
2019-01-03T12:50:41.607Z,100320.53
2019-01-03T12:52:52.417Z,100319.61
2019-01-03T12:55:44.861Z,100315.77
2019-01-03T12:57:55.685Z,100306.83
2019-01-03T13:00:48.155Z,100306.86
2019-01-03T13:02:58.964Z,100310.64
2019-01-03T13:05:09.779Z,100313.66
2019-01-03T13:07:20.572Z,100299.14
2019-01-03T13:09:31.410Z,100299.60
2019-01-03T13:11:42.194Z,100303.93
2019-01-03T13:13:53.033Z,100304.73
2019-01-03T13:16:03.840Z,100294.05
2019-01-03T13:18:14.661Z,100298.29
2019-01-03T13:20:25.456Z,100301.31
2019-01-03T13:22:36.253Z,100301.28
2019-01-03T13:24:47.085Z,100305.95
2019-01-03T13:26:57.909Z,100310.25
2019-01-03T13:29:08.887Z,100317.84
2019-01-03T13:31:19.697Z,100318.66
2019-01-03T13:33:30.512Z,100314.36
2019-01-03T13:35:41.303Z,100315.60
2019-01-03T13:37:52.137Z,100321.12
2019-01-03T13:40:44.623Z,100325.81
2019-01-03T13:42:55.436Z,100319.41
2019-01-03T13:45:06.352Z,100325.31
2019-01-03T13:47:17.169Z,100322.28
2019-01-03T13:49:27.995Z,100321.01
2019-01-03T13:51:38.804Z,100320.55
2019-01-03T13:53:49.596Z,100320.93
2019-01-03T13:56:00.440Z,100322.17
2019-01-03T13:58:52.906Z,100321.67
2019-01-03T14:01:03.917Z,100319.06
2019-01-03T14:03:14.740Z,100317.33
2019-01-03T14:05:25.586Z,100323.77
2019-01-03T14:07:36.356Z,100320.31
2019-01-03T14:09:47.193Z,100327.52
2019-01-03T14:11:58.005Z,100327.06
2019-01-03T14:14:08.813Z,100322.75
2019-01-03T14:16:19.630Z,100322.79
2019-01-03T14:18:30.447Z,100319.76
2019-01-03T14:21:01.156Z,100310.72
2019-01-03T14:23:11.963Z,100310.72
2019-01-03T14:25:22.800Z,100317.59
2019-01-03T14:27:33.632Z,100321.51
2019-01-03T14:29:44.422Z,100322.70
2019-01-03T14:31:55.267Z,100329.06
2019-01-03T14:34:06.089Z,100326.02
2019-01-03T14:36:16.940Z,100327.69
2019-01-03T14:38:27.723Z,100326.41
2019-01-03T14:40:38.552Z,100337.92
2019-01-03T14:42:49.376Z,100332.34
2019-01-03T14:45:00.291Z,100331.44
2019-01-03T14:47:11.189Z,100327.98
2019-01-03T14:49:21.993Z,100327.94
2019-01-03T14:53:55.108Z,100336.50
2019-01-03T14:56:05.915Z,100336.52
2019-01-03T14:58:16.739Z,100336.51
2019-01-03T15:00:27.562Z,100342.05
2019-01-03T15:02:38.378Z,100334.77
2019-01-03T15:04:49.181Z,100344.09
2019-01-03T15:06:59.992Z,100337.22
2019-01-03T15:09:10.956Z,100343.15
2019-01-03T15:11:21.762Z,100338.97
2019-01-03T15:13:32.589Z,100337.17
2019-01-03T15:15:43.428Z,100338.02
2019-01-03T15:17:54.272Z,100341.44
2019-01-03T15:20:46.728Z,100344.47
2019-01-03T15:22:57.594Z,100343.14
2019-01-03T15:25:08.414Z,100338.03
2019-01-03T15:27:19.228Z,100341.95
2019-01-03T15:29:30.055Z,100339.45
2019-01-03T15:31:40.971Z,100338.17
2019-01-03T15:33:51.797Z,100338.55
2019-01-03T15:36:02.631Z,100338.50
2019-01-03T15:38:13.470Z,100339.73
2019-01-03T15:40:24.304Z,100344.00
2019-01-03T15:42:35.093Z,100340.64
2019-01-03T15:44:45.944Z,100344.47
2019-01-03T15:46:56.739Z,100348.30
2019-01-03T15:49:07.546Z,100351.24
2019-01-03T15:51:18.360Z,100348.30
2019-01-03T15:53:29.167Z,100351.67
2019-01-03T15:55:40.089Z,100353.80
2019-01-03T15:57:50.896Z,100354.65
2019-01-03T16:00:43.375Z,100358.48
2019-01-03T16:02:54.179Z,100354.23
2019-01-03T16:05:46.639Z,100354.65
2019-01-03T16:07:57.455Z,100347.35
2019-01-03T16:10:08.400Z,100350.05
2019-01-03T16:12:19.215Z,100351.28
2019-01-03T16:14:30.077Z,100341.01
2019-01-03T16:16:40.876Z,100346.51
2019-01-03T16:18:51.699Z,100346.97
2019-01-03T16:21:02.550Z,100339.73
2019-01-03T16:23:13.358Z,100338.50
2019-01-03T16:25:24.178Z,100336.37
2019-01-03T16:27:35.087Z,100344.09
2019-01-03T16:29:45.912Z,100344.09
2019-01-03T16:31:56.756Z,100343.19
2019-01-03T16:34:07.573Z,100347.92
2019-01-03T16:36:18.424Z,100347.88
2019-01-03T16:38:29.225Z,100348.73
2019-01-03T16:40:40.037Z,100349.16
2019-01-03T16:42:50.865Z,100342.77
2019-01-03T16:45:43.357Z,100346.69
2019-01-03T16:47:54.155Z,100342.39
2019-01-03T16:50:46.648Z,100343.23
2019-01-03T16:52:57.485Z,100337.70
2019-01-03T16:55:08.406Z,100340.36
2019-01-03T16:57:19.246Z,100336.03
2019-01-03T16:59:30.091Z,100339.83
2019-01-03T17:01:40.908Z,100341.53
2019-01-03T17:04:11.623Z,100338.98
2019-01-03T17:09:14.710Z,100345.80
2019-01-03T17:11:25.542Z,100344.52
2019-01-03T17:13:36.377Z,100340.73
2019-01-03T17:15:47.298Z,100336.84
2019-01-03T17:17:58.135Z,100344.57
2019-01-03T17:20:50.603Z,100347.12
2019-01-03T17:23:01.459Z,100347.12
2019-01-03T17:25:12.453Z,100337.78
2019-01-03T17:27:23.273Z,100339.45
2019-01-03T17:29:34.150Z,100335.23
2019-01-03T17:31:44.948Z,100333.95
2019-01-03T17:33:55.771Z,100334.81
2019-01-03T17:36:06.579Z,100342.43
2019-01-03T17:38:17.536Z,100347.55
2019-01-03T17:40:28.358Z,100348.87
2019-01-03T17:43:00.966Z,100346.75
2019-01-03T17:45:11.764Z,100354.80
2019-01-03T17:47:22.611Z,100350.59
2019-01-03T17:49:33.449Z,100356.98
2019-01-03T17:51:44.244Z,100362.00
2019-01-03T17:53:55.143Z,100360.34
2019-01-03T17:56:05.975Z,100361.25
2019-01-03T17:58:16.956Z,100362.09
2019-01-03T18:00:27.805Z,100364.23
2019-01-03T18:02:38.610Z,100361.72
2019-01-03T18:04:49.443Z,100363.04
2019-01-03T18:07:00.240Z,100366.88
2019-01-03T18:09:11.074Z,100367.30
2019-01-03T18:11:21.881Z,100368.64
2019-01-03T18:13:32.706Z,100364.84
2019-01-03T18:15:43.671Z,100368.25
2019-01-03T18:17:54.481Z,100367.36
2019-01-03T18:20:47.087Z,100367.36
2019-01-03T18:22:57.887Z,100366.50
2019-01-03T18:25:08.744Z,100373.36
2019-01-03T18:27:19.562Z,100371.57
2019-01-03T18:29:30.509Z,100368.63
2019-01-03T18:31:41.320Z,100375.36
2019-01-03T18:33:52.101Z,100367.22
2019-01-03T18:36:03.056Z,100372.37
2019-01-03T18:38:13.853Z,100377.91
2019-01-03T18:40:24.741Z,100371.42
2019-01-03T18:42:35.551Z,100367.16
2019-01-03T18:44:46.365Z,100377.87
2019-01-03T18:46:57.220Z,100379.16
2019-01-03T18:49:08.060Z,100381.75
2019-01-03T18:51:18.892Z,100379.63
2019-01-03T18:53:29.791Z,100381.42
2019-01-03T18:55:40.665Z,100381.05
2019-01-03T18:57:51.492Z,100381.94
2019-01-03T19:00:43.991Z,100379.39
2019-01-03T19:02:54.832Z,100385.78
2019-01-03T19:05:05.648Z,100389.95
2019-01-03T19:07:16.498Z,100396.39
2019-01-03T19:09:27.330Z,100395.12
2019-01-03T19:11:38.171Z,100395.17
2019-01-03T19:13:48.976Z,100395.27
2019-01-03T19:15:59.927Z,100389.77
2019-01-03T19:18:10.755Z,100393.27
2019-01-03T19:20:21.575Z,100389.43
2019-01-03T19:22:32.461Z,100388.61
2019-01-03T19:24:43.397Z,100392.41
2019-01-03T19:26:54.197Z,100386.39
2019-01-03T19:29:05.047Z,100394.83
2019-01-03T19:31:15.850Z,100392.27
2019-01-03T19:33:26.697Z,100390.58
2019-01-03T19:35:37.542Z,100394.49
2019-01-03T19:37:48.374Z,100388.48
2019-01-03T19:39:59.181Z,100391.47
2019-01-03T19:42:10.088Z,100388.02
2019-01-03T19:44:20.951Z,100388.86
2019-01-03T19:46:31.753Z,100378.10
2019-01-03T19:48:42.584Z,100381.48
2019-01-03T19:50:53.373Z,100384.89
2019-01-03T19:53:04.350Z,100389.15
2019-01-03T19:55:15.151Z,100385.27
2019-01-03T19:57:25.991Z,100377.16
2019-01-03T19:59:36.840Z,100368.20
2019-01-03T20:01:47.765Z,100369.53
2019-01-03T20:03:58.783Z,100365.70
2019-01-03T20:06:09.606Z,100360.58
2019-01-03T20:08:20.448Z,100354.60
2019-01-03T20:10:31.330Z,100361.43
2019-01-03T20:12:43.326Z,100349.10
2019-01-03T20:14:55.013Z,100347.02
2019-01-03T20:17:05.814Z,100350.84
2019-01-03T20:19:16.643Z,100352.91
2019-01-03T20:21:27.447Z,100358.53
2019-01-03T20:23:38.376Z,100355.55
2019-01-03T20:25:49.215Z,100353.93
2019-01-03T20:28:00.080Z,100356.10
2019-01-03T20:30:10.986Z,100358.23
2019-01-03T20:32:21.896Z,100359.52
2019-01-03T20:34:32.760Z,100365.50
2019-01-03T20:36:43.760Z,100368.05
2019-01-03T20:38:54.570Z,100369.72
2019-01-03T20:41:05.537Z,100364.17
2019-01-03T20:43:16.463Z,100365.50
2019-01-03T20:45:27.406Z,100362.51
2019-01-03T20:47:38.225Z,100361.27
2019-01-03T20:49:49.091Z,100363.79
2019-01-03T20:51:59.905Z,100361.65
2019-01-03T20:54:10.716Z,100366.77
2019-01-03T20:56:21.633Z,100366.86
2019-01-03T20:58:32.467Z,100363.02
2019-01-03T21:00:43.331Z,100357.89
2019-01-03T21:02:54.172Z,100363.44
2019-01-03T21:05:05.177Z,100362.16
2019-01-03T21:07:16.104Z,100359.64
2019-01-03T21:09:26.924Z,100354.09
2019-01-03T21:11:37.781Z,100346.38
2019-01-03T21:14:10.372Z,100343.73
2019-01-03T21:16:21.200Z,100355.67
2019-01-03T21:21:02.529Z,100360.41
2019-01-03T21:23:13.360Z,100356.49
2019-01-03T21:25:24.231Z,100351.80
2019-01-03T21:27:35.044Z,100356.48
2019-01-03T21:29:45.879Z,100359.90
2019-01-03T21:31:56.671Z,100358.23
2019-01-03T21:34:07.512Z,100358.23
2019-01-03T21:36:18.341Z,100362.03
2019-01-03T21:38:29.178Z,100360.70
2019-01-03T21:40:39.984Z,100361.18
2019-01-03T21:42:50.799Z,100363.31
2019-01-03T21:45:01.625Z,100365.06
2019-01-03T21:47:12.477Z,100364.64
2019-01-03T21:49:23.303Z,100361.23
2019-01-03T21:51:34.224Z,100368.05
2019-01-03T21:53:45.059Z,100371.46
2019-01-03T21:55:55.871Z,100364.72
2019-01-03T21:58:06.882Z,100366.81
2019-01-03T22:00:17.786Z,100364.22
2019-01-03T22:02:28.626Z,100368.91
2019-01-03T22:04:39.452Z,100364.63
2019-01-03T22:06:50.266Z,100359.52
2019-01-03T22:09:01.118Z,100365.06
2019-01-03T22:11:12.152Z,100367.16
2019-01-03T22:13:22.967Z,100362.03
2019-01-03T22:15:33.899Z,100372.28
2019-01-03T22:17:44.739Z,100370.19
2019-01-03T22:19:55.557Z,100364.25
2019-01-03T22:22:06.805Z,100369.41
2019-01-03T22:24:17.624Z,100369.37
2019-01-03T22:26:48.448Z,100373.64
2019-01-03T22:28:59.360Z,100373.64
2019-01-03T22:31:10.153Z,100375.78
2019-01-03T22:33:20.959Z,100373.17
2019-01-03T22:35:31.804Z,100382.09
2019-01-03T22:37:42.603Z,100379.91
2019-01-03T22:39:53.431Z,100382.94
2019-01-03T22:42:04.329Z,100381.66
2019-01-03T22:44:15.154Z,100382.98
2019-01-03T22:46:25.969Z,100391.13
2019-01-03T22:48:36.825Z,100380.85
2019-01-03T22:50:47.643Z,100387.47
2019-01-03T22:52:58.438Z,100382.09
2019-01-03T22:55:09.297Z,100386.81
2019-01-03T22:57:20.107Z,100391.05
2019-01-03T22:59:30.965Z,100390.97
2019-01-03T23:01:41.752Z,100392.20
2019-01-03T23:03:52.653Z,100392.63
2019-01-03T23:06:03.583Z,100388.36
2019-01-03T23:08:14.391Z,100385.33
2019-01-03T23:10:45.112Z,100389.52
2019-01-03T23:12:55.921Z,100389.52
2019-01-03T23:15:06.747Z,100388.70
2019-01-03T23:17:17.596Z,100389.60
2019-01-03T23:19:28.439Z,100384.48
2019-01-03T23:21:39.265Z,100384.91
2019-01-03T23:23:50.052Z,100391.27
2019-01-03T23:28:19.580Z,100394.68
2019-01-03T23:30:30.401Z,100398.09
2019-01-03T23:33:01.124Z,100412.09
2019-01-03T23:35:11.942Z,100412.09
2019-01-03T23:37:22.767Z,100412.17
2019-01-03T23:39:33.553Z,100416.52
2019-01-03T23:41:44.386Z,100412.73
2019-01-03T23:43:55.171Z,100414.52
2019-01-03T23:46:05.971Z,100409.78
2019-01-03T23:48:16.800Z,100411.06
2019-01-03T23:50:49.380Z,100407.23
2019-01-03T23:53:00.197Z,100413.25
2019-01-03T23:55:11.107Z,100412.35
2019-01-03T23:57:21.944Z,100413.20
2019-01-03T23:59:32.738Z,100409.75
